createdAt,value
2022-09-26T00:01:46.243Z,16.02
2022-09-26T00:04:23.327Z,14.50
2022-09-26T00:06:55.603Z,13.55
2022-09-26T00:09:25.981Z,13.93
2022-09-26T00:11:56.089Z,15.35
2022-09-26T00:14:28.846Z,15.30
2022-09-26T00:16:58.516Z,16.63
2022-09-26T00:19:28.951Z,16.65
2022-09-26T00:21:58.034Z,15.45
2022-09-26T00:24:27.419Z,14.93
2022-09-26T00:26:56.385Z,14.07
2022-09-26T00:29:25.810Z,15.70
2022-09-26T00:31:55.251Z,15.23
2022-09-26T00:34:24.374Z,14.25
2022-09-26T00:36:54.800Z,14.02
2022-09-26T00:39:24.058Z,14.73
2022-09-26T00:41:53.388Z,14.35
2022-09-26T00:44:46.601Z,14.07
2022-09-26T00:47:33.216Z,14.57
2022-09-26T00:50:06.437Z,12.98
2022-09-26T00:52:40.527Z,12.85
2022-09-26T00:55:14.201Z,14.35
2022-09-26T00:57:48.810Z,14.77
2022-09-26T01:00:17.944Z,13.95
2022-09-26T01:02:49.521Z,13.13
2022-09-26T01:05:22.922Z,14.07
2022-09-26T01:07:56.498Z,13.45
2022-09-26T01:10:28.914Z,14.30
2022-09-26T01:13:00.923Z,13.15
2022-09-26T01:15:30.338Z,12.65
2022-09-26T01:17:59.763Z,13.20
2022-09-26T01:20:35.211Z,13.90
2022-09-26T01:23:45.412Z,12.98
2022-09-26T01:26:38.850Z,12.18
2022-09-26T01:29:45.870Z,13.52
2022-09-26T01:32:44.945Z,12.35
2022-09-26T01:35:29.378Z,12.75
2022-09-26T01:38:09.455Z,13.70
2022-09-26T01:40:44.706Z,12.40
2022-09-26T01:43:21.246Z,12.27
2022-09-26T01:45:54.765Z,12.40
2022-09-26T01:48:32.595Z,12.60
2022-09-26T01:51:09.975Z,13.25
2022-09-26T01:53:45.453Z,12.77
2022-09-26T01:56:18.673Z,12.52
2022-09-26T01:58:52.338Z,14.40
2022-09-26T02:01:24.357Z,14.45
2022-09-26T02:03:59.981Z,13.40
2022-09-26T02:09:06.457Z,11.57
2022-09-26T02:11:38.188Z,12.15
2022-09-26T02:14:11.943Z,13.98
2022-09-26T02:16:44.598Z,12.57
2022-09-26T02:19:21.100Z,12.30
2022-09-26T02:21:51.932Z,13.85
2022-09-26T02:24:21.710Z,13.60
2022-09-26T02:26:51.819Z,12.93
2022-09-26T02:29:22.831Z,13.50
2022-09-26T02:36:51.143Z,13.07
2022-09-26T02:39:20.441Z,13.02
2022-09-26T02:42:02.226Z,12.90
2022-09-26T02:44:47.174Z,13.02
2022-09-26T02:47:35.194Z,12.80
2022-09-26T02:50:22.503Z,12.48
2022-09-26T02:53:02.903Z,12.68
2022-09-26T02:55:47.284Z,12.90
2022-09-26T02:58:24.281Z,12.73
2022-09-26T03:01:01.704Z,13.43
2022-09-26T03:03:36.700Z,12.40
2022-09-26T03:06:09.599Z,13.07
2022-09-26T03:08:44.370Z,13.43
2022-09-26T03:11:17.331Z,12.35
2022-09-26T03:13:48.452Z,13.52
2022-09-26T03:16:19.892Z,13.05
2022-09-26T03:18:53.660Z,14.00
2022-09-26T03:21:23.385Z,13.43
2022-09-26T03:23:54.163Z,13.52
2022-09-26T03:26:26.145Z,14.65
2022-09-26T03:28:59.287Z,14.73
2022-09-26T03:31:31.634Z,15.13
2022-09-26T03:34:03.394Z,14.15
2022-09-26T03:36:33.343Z,14.57
2022-09-26T03:39:05.996Z,14.50
2022-09-26T03:41:42.459Z,16.45
2022-09-26T03:44:15.902Z,16.88
2022-09-26T03:47:16.430Z,14.02
2022-09-26T03:49:55.065Z,14.55
2022-09-26T03:52:25.984Z,14.63
2022-09-26T03:54:57.891Z,15.43
2022-09-26T03:57:27.776Z,15.23
2022-09-26T04:00:08.770Z,15.88
2022-09-26T04:02:48.426Z,15.63
2022-09-26T04:05:37.422Z,15.40
2022-09-26T04:08:06.778Z,16.63
2022-09-26T04:10:38.759Z,16.75
2022-09-26T04:13:09.125Z,16.83
2022-09-26T04:15:39.319Z,19.05
2022-09-26T04:18:14.290Z,17.70
2022-09-26T04:20:44.236Z,17.35
2022-09-26T04:23:14.043Z,17.75
2022-09-26T04:25:44.609Z,18.38
2022-09-26T04:28:13.887Z,17.90
2022-09-26T04:30:42.811Z,15.90
2022-09-26T04:33:13.273Z,18.05
2022-09-26T04:35:47.711Z,19.95
2022-09-26T04:38:18.825Z,19.58
2022-09-26T04:40:49.510Z,20.77
2022-09-26T04:43:19.121Z,18.67
2022-09-26T04:45:48.501Z,18.45
2022-09-26T04:48:17.663Z,18.80
2022-09-26T04:50:58.953Z,20.02
2022-09-26T04:53:29.584Z,17.23
2022-09-26T04:56:16.707Z,20.23
2022-09-26T04:58:46.945Z,20.70
2022-09-26T05:01:18.913Z,20.33
2022-09-26T05:04:07.334Z,19.42
2022-09-26T05:06:36.828Z,19.88
2022-09-26T05:09:08.073Z,19.05
2022-09-26T05:11:58.898Z,20.98
2022-09-26T05:14:28.848Z,20.70
2022-09-26T05:16:59.387Z,20.73
2022-09-26T05:19:28.830Z,20.35
2022-09-26T05:22:18.431Z,18.63
2022-09-26T05:25:08.116Z,20.58
2022-09-26T05:27:40.678Z,23.05
2022-09-26T05:30:12.542Z,22.65
2022-09-26T05:32:48.545Z,21.33
2022-09-26T05:35:19.135Z,23.35
2022-09-26T05:37:48.721Z,23.00
2022-09-26T05:40:35.706Z,20.60
2022-09-26T05:43:07.137Z,19.83
2022-09-26T05:45:36.956Z,20.80
2022-09-26T05:48:06.881Z,19.85
2022-09-26T05:50:39.418Z,21.45
2022-09-26T05:53:12.226Z,19.83
2022-09-26T05:55:42.281Z,20.35
2022-09-26T05:58:15.807Z,21.52
2022-09-26T06:01:05.528Z,18.65
2022-09-26T06:03:36.157Z,19.50
2022-09-26T06:06:12.680Z,18.48
2022-09-26T06:08:42.725Z,19.60
2022-09-26T06:11:31.832Z,19.45
2022-09-26T06:14:03.770Z,20.60
2022-09-26T06:16:34.163Z,19.58
2022-09-26T06:19:03.692Z,19.05
2022-09-26T06:21:32.724Z,19.60
2022-09-26T06:24:07.527Z,19.67
2022-09-26T06:26:38.439Z,20.02
2022-09-26T06:29:11.504Z,19.05
2022-09-26T06:31:43.613Z,18.27
2022-09-26T06:34:15.715Z,19.27
2022-09-26T06:36:53.297Z,16.85
2022-09-26T06:39:23.014Z,18.08
2022-09-26T06:41:53.284Z,16.40
2022-09-26T06:44:38.836Z,17.50
2022-09-26T06:47:31.033Z,17.85
2022-09-26T06:50:23.305Z,16.00
2022-09-26T06:53:02.331Z,17.52
2022-09-26T06:55:37.986Z,18.65
2022-09-26T06:58:07.422Z,17.90
2022-09-26T07:00:52.017Z,19.02
2022-09-26T07:03:29.827Z,17.70
2022-09-26T07:06:09.164Z,16.17
2022-09-26T07:09:00.821Z,16.90
2022-09-26T07:12:18.998Z,17.40
2022-09-26T07:14:52.817Z,16.35
2022-09-26T07:17:35.201Z,16.88
2022-09-26T07:20:23.352Z,15.95
2022-09-26T07:22:52.499Z,16.95
2022-09-26T07:25:22.700Z,17.77
2022-09-26T07:27:53.478Z,16.10
2022-09-26T07:30:30.797Z,17.25
2022-09-26T07:33:07.605Z,17.33
2022-09-26T07:35:50.329Z,18.73
2022-09-26T07:38:20.814Z,18.50
2022-09-26T07:40:53.995Z,18.20
2022-09-26T07:43:35.876Z,18.02
2022-09-26T07:46:32.177Z,17.45
2022-09-26T07:49:22.848Z,17.75
2022-09-26T07:52:00.851Z,17.10
2022-09-26T07:54:41.395Z,16.88
2022-09-26T07:57:43.488Z,17.83
2022-09-26T08:00:31.585Z,17.80
2022-09-26T08:03:31.633Z,17.40
2022-09-26T08:06:05.710Z,17.63
2022-09-26T08:08:36.033Z,17.05
2022-09-26T08:11:26.258Z,19.05
2022-09-26T08:14:09.562Z,17.42
2022-09-26T08:16:47.814Z,17.10
2022-09-26T08:19:17.634Z,17.42
2022-09-26T08:21:49.251Z,17.77
2022-09-26T08:24:20.687Z,16.38
2022-09-26T08:26:56.562Z,16.10
2022-09-26T08:29:32.277Z,17.13
2022-09-26T08:32:03.242Z,15.50
2022-09-26T08:34:35.776Z,16.13
2022-09-26T08:37:29.679Z,14.82
2022-09-26T08:40:28.540Z,15.48
2022-09-26T08:43:31.172Z,15.65
2022-09-26T08:46:44.339Z,15.77
2022-09-26T08:49:44.091Z,15.82
2022-09-26T08:52:30.403Z,14.52
2022-09-26T08:55:02.606Z,15.50
2022-09-26T08:57:39.098Z,16.05
2022-09-26T09:03:00.812Z,14.57
2022-09-26T09:05:33.730Z,14.65
2022-09-26T09:08:08.483Z,15.90
2022-09-26T09:10:54.558Z,16.17
2022-09-26T09:13:47.629Z,15.18
2022-09-26T09:16:51.615Z,14.98
2022-09-26T09:19:49.181Z,15.52
2022-09-26T09:22:56.648Z,14.45
2022-09-26T09:25:37.007Z,13.98
2022-09-26T09:28:16.488Z,14.45
2022-09-26T09:30:51.543Z,13.43
2022-09-26T09:33:53.473Z,14.38
2022-09-26T09:36:30.590Z,12.88
2022-09-26T09:39:34.127Z,11.18
2022-09-26T09:42:13.354Z,9.98
2022-09-26T09:44:47.832Z,8.13
2022-09-26T09:47:19.543Z,7.50
2022-09-26T09:49:50.201Z,6.70
2022-09-26T09:52:40.273Z,7.40
2022-09-26T09:55:22.047Z,7.10
2022-09-26T09:58:11.589Z,6.80
2022-09-26T10:00:51.069Z,6.78
2022-09-26T10:03:35.125Z,6.90
2022-09-26T10:06:46.099Z,6.47
2022-09-26T10:09:38.630Z,7.05
2022-09-26T10:12:27.051Z,6.72
2022-09-26T10:15:22.387Z,6.38
2022-09-26T10:18:26.798Z,6.40
2022-09-26T10:21:16.514Z,6.15
2022-09-26T10:23:50.407Z,6.40
2022-09-26T10:26:40.593Z,5.80
2022-09-26T10:29:25.933Z,5.80
2022-09-26T10:32:01.486Z,5.78
2022-09-26T10:34:33.334Z,6.47
2022-09-26T10:37:23.209Z,6.28
2022-09-26T10:40:16.698Z,5.50
2022-09-26T10:42:47.593Z,5.45
2022-09-26T10:45:21.332Z,5.93
2022-09-26T10:48:02.386Z,4.93
2022-09-26T10:50:53.338Z,4.88
2022-09-26T10:53:41.466Z,4.72
2022-09-26T10:56:17.329Z,5.03
2022-09-26T10:58:51.279Z,4.72
2022-09-26T11:01:25.641Z,4.80
2022-09-26T11:04:01.631Z,4.80
2022-09-26T11:06:50.901Z,4.40
2022-09-26T11:09:29.908Z,4.05
2022-09-26T11:12:25.496Z,4.47
2022-09-26T11:14:59.635Z,4.70
2022-09-26T11:17:47.623Z,4.43
2022-09-26T11:20:41.945Z,4.18
2022-09-26T11:23:32.883Z,4.60
2022-09-26T11:26:12.375Z,4.72
2022-09-26T11:28:46.809Z,4.60
2022-09-26T11:31:30.701Z,3.92
2022-09-26T11:34:29.434Z,3.88
2022-09-26T11:37:30.606Z,4.32
2022-09-26T11:40:22.034Z,5.10
2022-09-26T11:43:20.186Z,4.15
2022-09-26T11:46:14.978Z,5.03
2022-09-26T11:49:53.669Z,5.97
2022-09-26T11:52:54.790Z,5.05
2022-09-26T11:55:33.153Z,5.57
2022-09-26T11:58:15.325Z,4.88
2022-09-26T12:00:58.010Z,4.57
2022-09-26T12:04:05.792Z,5.25
2022-09-26T12:06:43.145Z,5.50
2022-09-26T12:09:36.129Z,5.38
2022-09-26T12:12:15.344Z,5.00
2022-09-26T12:15:03.338Z,5.30
2022-09-26T12:17:45.209Z,4.85
2022-09-26T12:20:25.461Z,4.80
2022-09-26T12:23:01.776Z,4.72
2022-09-26T12:25:42.476Z,4.15
2022-09-26T12:28:27.024Z,4.43
2022-09-26T12:31:08.807Z,3.88
2022-09-26T12:34:09.031Z,4.20
2022-09-26T12:36:48.559Z,4.43
2022-09-26T12:39:39.363Z,4.32
2022-09-26T12:42:26.725Z,4.70
2022-09-26T12:45:07.661Z,4.85
2022-09-26T12:48:18.857Z,4.20
2022-09-26T12:51:02.663Z,4.20
2022-09-26T12:53:48.509Z,4.72
2022-09-26T12:56:23.672Z,4.38
2022-09-26T12:59:12.891Z,4.82
2022-09-26T13:02:17.203Z,4.30
2022-09-26T13:05:09.918Z,5.10
2022-09-26T13:07:53.874Z,4.50
2022-09-26T13:10:50.633Z,5.00
2022-09-26T13:13:46.961Z,4.93
2022-09-26T13:16:34.220Z,4.70
2022-09-26T13:19:15.539Z,5.55
2022-09-26T13:21:49.683Z,4.85
2022-09-26T13:24:25.137Z,5.47
2022-09-26T13:27:00.647Z,5.30
2022-09-26T13:29:37.438Z,4.70
2022-09-26T13:32:27.838Z,4.93
2022-09-26T13:35:04.103Z,4.75
2022-09-26T13:37:47.180Z,5.10
2022-09-26T13:40:37.570Z,5.07
2022-09-26T13:43:23.826Z,4.55
2022-09-26T13:46:06.151Z,4.55
2022-09-26T13:48:52.009Z,4.57
2022-09-26T13:51:25.530Z,5.30
2022-09-26T13:54:05.134Z,5.10
2022-09-26T13:56:48.719Z,5.20
2022-09-26T13:59:52.585Z,5.53
2022-09-26T14:02:29.254Z,5.03
2022-09-26T14:05:49.264Z,5.40
2022-09-26T14:08:48.868Z,5.43
2022-09-26T14:11:30.482Z,5.63
2022-09-26T14:14:39.100Z,5.57
2022-09-26T14:18:03.504Z,3.35
2022-09-26T14:20:48.158Z,2.65
2022-09-26T14:23:37.121Z,2.70
2022-09-26T14:26:10.519Z,2.83
2022-09-26T14:28:41.124Z,2.90
2022-09-26T14:31:42.723Z,3.55
2022-09-26T14:34:23.128Z,3.40
2022-09-26T14:36:56.982Z,3.63
2022-09-26T14:39:39.524Z,3.90
2022-09-26T14:42:12.025Z,3.70
2022-09-26T14:44:52.345Z,4.07
2022-09-26T14:47:22.597Z,3.50
2022-09-26T14:49:59.991Z,3.40
2022-09-26T14:52:31.873Z,3.75
2022-09-26T14:55:07.079Z,3.72
2022-09-26T14:57:39.897Z,3.67
2022-09-26T15:00:38.060Z,3.75
2022-09-26T15:03:14.729Z,3.60
2022-09-26T15:05:45.562Z,3.97
2022-09-26T15:08:26.664Z,4.40
2022-09-26T15:10:59.159Z,6.20
2022-09-26T15:13:37.565Z,5.90
2022-09-26T15:16:21.899Z,5.38
2022-09-26T15:18:56.633Z,4.85
2022-09-26T15:21:33.969Z,4.57
2022-09-26T15:24:22.233Z,4.30
2022-09-26T15:26:51.996Z,4.07
2022-09-26T15:29:22.167Z,4.35
2022-09-26T15:31:53.071Z,5.13
2022-09-26T15:34:28.987Z,5.00
2022-09-26T15:37:00.221Z,5.97
2022-09-26T15:39:42.410Z,5.43
2022-09-26T15:42:43.891Z,5.45
2022-09-26T15:45:29.951Z,5.88
2022-09-26T15:50:34.471Z,6.72
2022-09-26T15:53:09.182Z,6.07
2022-09-26T15:55:50.249Z,5.85
2022-09-26T15:58:24.389Z,6.00
2022-09-26T16:00:55.491Z,5.30
2022-09-26T16:03:40.637Z,6.28
2022-09-26T16:06:23.027Z,6.50
2022-09-26T16:08:58.504Z,6.20
2022-09-26T16:11:30.035Z,8.68
2022-09-26T16:14:01.330Z,5.93
2022-09-26T16:16:33.499Z,6.75
2022-09-26T16:19:05.756Z,8.02
2022-09-26T16:21:37.631Z,11.38
2022-09-26T16:24:23.863Z,14.00
2022-09-26T16:26:55.745Z,14.48
2022-09-26T16:29:33.215Z,15.32
2022-09-26T16:32:04.332Z,11.30
2022-09-26T16:34:35.674Z,11.90
2022-09-26T16:37:05.218Z,12.02
2022-09-26T16:39:34.545Z,9.88
2022-09-26T16:42:15.518Z,9.73
2022-09-26T16:44:55.131Z,10.38
2022-09-26T16:47:41.723Z,11.57
2022-09-26T16:50:30.360Z,12.40
2022-09-26T16:53:00.435Z,12.85
2022-09-26T16:55:33.377Z,12.15
2022-09-26T16:58:06.441Z,13.27
2022-09-26T17:00:54.841Z,11.70
2022-09-26T17:03:27.515Z,11.27
2022-09-26T17:05:58.277Z,9.27
2022-09-26T17:08:29.769Z,9.55
2022-09-26T17:11:03.804Z,9.25
2022-09-26T17:13:36.567Z,9.05
2022-09-26T17:16:07.610Z,10.93
2022-09-26T17:18:39.717Z,9.80
2022-09-26T17:21:12.057Z,10.95
2022-09-26T17:23:42.286Z,11.38
2022-09-26T17:26:21.696Z,11.18
2022-09-26T17:28:54.631Z,11.52
2022-09-26T17:31:25.334Z,10.82
2022-09-26T17:33:55.473Z,11.10
2022-09-26T17:36:28.147Z,10.93
2022-09-26T17:38:59.641Z,16.98
2022-09-26T17:41:30.104Z,23.63
2022-09-26T17:44:01.156Z,30.77
2022-09-26T17:46:31.208Z,29.60
2022-09-26T17:49:05.311Z,34.08
2022-09-26T17:51:36.323Z,38.85
2022-09-26T17:54:14.918Z,31.67
2022-09-26T17:56:45.185Z,25.80
2022-09-26T17:59:23.441Z,23.48
2022-09-26T18:01:58.451Z,24.40
2022-09-26T18:04:31.611Z,22.40
2022-09-26T18:07:05.585Z,18.33
2022-09-26T18:09:36.758Z,17.02
2022-09-26T18:12:07.182Z,17.75
2022-09-26T18:14:41.670Z,18.55
2022-09-26T18:17:15.351Z,18.73
2022-09-26T18:19:44.591Z,14.75
2022-09-26T18:22:19.065Z,16.23
2022-09-26T18:24:52.018Z,15.50
2022-09-26T18:29:55.402Z,13.77
2022-09-26T18:32:29.376Z,11.07
2022-09-26T18:34:58.414Z,10.68
2022-09-26T18:37:29.637Z,10.00
2022-09-26T18:40:04.326Z,8.43
2022-09-26T18:42:35.503Z,9.05
2022-09-26T18:45:08.810Z,8.93
2022-09-26T18:47:43.572Z,8.98
2022-09-26T18:50:22.813Z,7.85
2022-09-26T18:52:55.407Z,8.20
2022-09-26T18:55:44.108Z,8.57
2022-09-26T18:58:28.005Z,13.48
2022-09-26T19:01:00.924Z,19.13
2022-09-26T19:03:34.478Z,18.42
2022-09-26T19:06:07.079Z,18.05
2022-09-26T19:08:39.656Z,17.23
2022-09-26T19:11:13.993Z,16.70
2022-09-26T19:13:44.625Z,16.92
2022-09-26T19:16:15.834Z,14.13
2022-09-26T19:18:46.448Z,14.85
2022-09-26T19:21:23.551Z,13.02
2022-09-26T19:23:54.130Z,12.75
2022-09-26T19:26:28.552Z,13.15
2022-09-26T19:28:59.608Z,12.02
2022-09-26T19:31:30.999Z,11.23
2022-09-26T19:34:00.680Z,11.15
2022-09-26T19:36:29.897Z,9.70
2022-09-26T19:38:59.569Z,10.25
2022-09-26T19:41:29.367Z,9.75
2022-09-26T19:43:58.499Z,9.93
2022-09-26T19:46:30.667Z,9.85
2022-09-26T19:49:01.942Z,9.18
2022-09-26T19:51:33.182Z,9.55
2022-09-26T19:54:15.652Z,10.40
2022-09-26T19:56:45.730Z,10.05
2022-09-26T19:59:17.437Z,10.63
2022-09-26T20:01:48.211Z,9.98
2022-09-26T20:04:20.244Z,11.15
2022-09-26T20:06:49.563Z,10.75
2022-09-26T20:09:21.400Z,11.50
2022-09-26T20:11:50.805Z,11.27
2022-09-26T20:14:26.170Z,11.77
2022-09-26T20:17:00.682Z,12.43
2022-09-26T20:19:34.786Z,15.07
2022-09-26T20:22:07.571Z,12.82
2022-09-26T20:24:39.844Z,12.63
2022-09-26T20:27:15.681Z,12.13
2022-09-26T20:30:02.725Z,13.02
2022-09-26T20:32:34.970Z,12.75
2022-09-26T20:35:06.110Z,15.05
2022-09-26T20:37:41.055Z,15.50
2022-09-26T20:40:18.189Z,16.77
2022-09-26T20:42:50.046Z,17.27
2022-09-26T20:45:23.810Z,19.90
2022-09-26T20:47:54.703Z,18.08
2022-09-26T20:50:23.969Z,14.80
2022-09-26T20:52:53.414Z,15.55
2022-09-26T20:55:22.511Z,15.23
2022-09-26T20:57:52.002Z,14.57
2022-09-26T21:00:22.731Z,13.55
2022-09-26T21:02:56.134Z,13.35
2022-09-26T21:05:28.054Z,12.60
2022-09-26T21:07:59.222Z,13.13
2022-09-26T21:10:30.894Z,12.77
2022-09-26T21:13:01.160Z,12.43
2022-09-26T21:15:33.310Z,12.75
2022-09-26T21:18:04.220Z,11.90
2022-09-26T21:20:35.865Z,11.57
2022-09-26T21:23:24.226Z,12.32
2022-09-26T21:25:53.557Z,12.55
2022-09-26T21:28:27.595Z,11.20
2022-09-26T21:31:00.800Z,11.32
2022-09-26T21:33:31.672Z,12.15
2022-09-26T21:36:00.997Z,12.80
2022-09-26T21:38:30.995Z,11.57
2022-09-26T21:41:02.501Z,11.07
2022-09-26T21:43:37.525Z,11.30
2022-09-26T21:46:07.011Z,10.88
2022-09-26T21:48:38.420Z,10.80
2022-09-26T21:51:08.952Z,10.10
2022-09-26T21:53:42.314Z,10.00
2022-09-26T21:56:15.724Z,10.55
2022-09-26T21:58:46.878Z,9.73
2022-09-26T22:01:16.388Z,9.15
2022-09-26T22:03:46.846Z,10.27
2022-09-26T22:06:16.475Z,9.63
2022-09-26T22:08:45.652Z,9.02
2022-09-26T22:11:15.030Z,9.50
2022-09-26T22:13:44.317Z,9.05
2022-09-26T22:16:14.790Z,8.65
2022-09-26T22:18:45.343Z,9.23
2022-09-26T22:21:15.306Z,8.93
2022-09-26T22:23:44.615Z,8.38
2022-09-26T22:26:14.017Z,9.02
2022-09-26T22:28:43.914Z,9.57
2022-09-26T22:31:13.508Z,9.43
2022-09-26T22:33:42.553Z,9.27
2022-09-26T22:36:13.699Z,8.82
2022-09-26T22:38:42.990Z,9.25
2022-09-26T22:41:12.288Z,9.20
2022-09-26T22:43:41.455Z,8.95
2022-09-26T22:46:12.924Z,9.48
2022-09-26T22:48:44.118Z,10.02
2022-09-26T22:51:15.649Z,12.02
2022-09-26T22:53:46.153Z,12.77
2022-09-26T22:56:16.972Z,10.98
2022-09-26T22:58:49.246Z,10.73
2022-09-26T23:01:22.347Z,10.70
2022-09-26T23:03:53.010Z,10.02
2022-09-26T23:06:24.996Z,10.40
2022-09-26T23:08:54.564Z,10.85
2022-09-26T23:11:24.459Z,10.43
2022-09-26T23:13:54.934Z,10.43
2022-09-26T23:16:28.801Z,10.80
2022-09-26T23:18:59.809Z,10.25
2022-09-26T23:21:30.884Z,10.98
2022-09-26T23:24:00.396Z,10.30
2022-09-26T23:26:32.014Z,10.18
2022-09-26T23:29:01.647Z,11.38
2022-09-26T23:31:31.326Z,11.25
2022-09-26T23:34:00.586Z,10.32
2022-09-26T23:36:31.361Z,11.13
2022-09-26T23:39:00.587Z,11.45
2022-09-26T23:41:29.854Z,10.73
2022-09-26T23:43:59.477Z,10.90
2022-09-26T23:46:28.594Z,9.82
2022-09-26T23:48:57.883Z,11.00
2022-09-26T23:51:27.072Z,10.25
2022-09-26T23:53:57.645Z,10.60
2022-09-26T23:56:27.143Z,10.25
2022-09-26T23:58:58.363Z,10.55
